Terminal Aerodrome Forecast
Issued by NWS Pocatello, ID

Home | Current Version | Previous Version | Text Only | Print | Product List | Glossary On
Versions: 1 2 3 4 5 6 7 8 9 10 11 12 13 14 15 16 17 18 19 20 21 22 23 24 25 26
000
FTUS45 KPIH 181120
TAFIDA
TAF
KIDA 181120Z 1812/1912 VRB05KT P6SM OVC035
     FM181400 VRB05KT P6SM SCT015 OVC025
     FM182000 20012G21KT P6SM SCT025 OVC040
     FM190300 19007KT P6SM BKN030 BKN100=

USA.gov is the U.S. government's official web portal to all federal, state and local government web resources and services.